Terminal Aerodrome Forecast
Issued by NWS Louisville, KY

Home | Current Version | Previous Version | Text Only | Print | Product List | Glossary On
Versions: 1 2 3 4 5 6 7 8 9 10 11 12 13 14 15 16 17 18
947
FTUS43 KLMK 202326
TAFSDF
TAF
KSDF 202326Z 2100/2206 18008KT P6SM BKN040
     FM210700 18006KT 5SM BR BKN028
     FM211500 19010KT P6SM SCT030 BKN100
     FM212200 15005KT P6SM VCSH BKN025=

USA.gov is the U.S. government's official web portal to all federal, state and local government web resources and services.